createdAt,value
2019-04-11T00:01:38.676Z,3.60
2019-04-11T00:04:01.892Z,3.60
2019-04-11T00:06:31.793Z,3.50
2019-04-11T00:09:00.756Z,3.50
2019-04-11T00:11:30.196Z,3.50
2019-04-11T00:13:59.880Z,3.50
2019-04-11T00:16:28.983Z,3.40
2019-04-11T00:19:10.068Z,3.40
2019-04-11T00:21:39.373Z,3.40
2019-04-11T00:24:08.372Z,3.40
2019-04-11T00:26:38.111Z,3.40
2019-04-11T00:29:07.206Z,3.40
2019-04-11T00:31:36.887Z,3.40
2019-04-11T00:34:06.883Z,3.30
2019-04-11T00:36:36.745Z,3.30
2019-04-11T00:39:09.090Z,3.30
2019-04-11T00:41:37.951Z,3.20
2019-04-11T00:44:06.779Z,3.20
2019-04-11T00:46:36.264Z,3.20
2019-04-11T00:49:06.115Z,3.10
2019-04-11T00:51:36.077Z,3.10
2019-04-11T00:54:05.100Z,3.00
2019-04-11T00:56:34.534Z,3.00
2019-04-11T00:59:03.404Z,2.90
2019-04-11T01:01:32.265Z,2.90
2019-04-11T01:04:01.322Z,2.80
2019-04-11T01:06:30.367Z,2.80
2019-04-11T01:09:00.010Z,2.80
2019-04-11T01:11:29.989Z,2.70
2019-04-11T01:13:59.531Z,2.70
2019-04-11T01:16:33.035Z,2.60
2019-04-11T01:19:02.620Z,2.60
2019-04-11T01:21:32.709Z,2.50
2019-04-11T01:24:01.765Z,2.50
2019-04-11T01:26:30.647Z,2.50
2019-04-11T01:28:59.478Z,2.50
2019-04-11T01:31:29.923Z,2.40
2019-04-11T01:33:58.796Z,2.40
2019-04-11T01:36:27.621Z,2.40
2019-04-11T01:39:01.004Z,2.30
2019-04-11T01:41:30.875Z,2.30
2019-04-11T01:44:03.709Z,2.30
2019-04-11T01:46:30.310Z,2.30
2019-04-11T01:49:03.913Z,2.30
2019-04-11T01:51:33.780Z,2.30
2019-04-11T01:54:03.607Z,2.30
2019-04-11T01:56:33.594Z,2.30
2019-04-11T01:59:02.782Z,2.30
2019-04-11T02:01:37.008Z,2.30
2019-04-11T02:04:13.991Z,2.30
2019-04-11T02:06:42.951Z,2.20
2019-04-11T02:09:13.775Z,2.20
2019-04-11T02:11:42.786Z,2.20
2019-04-11T02:14:16.144Z,2.20
2019-04-11T02:16:43.215Z,2.20
2019-04-11T02:19:12.197Z,2.20
2019-04-11T02:21:42.076Z,2.20
2019-04-11T02:24:32.004Z,2.10
2019-04-11T02:27:03.046Z,2.10
2019-04-11T02:29:31.876Z,2.10
2019-04-11T02:32:04.758Z,2.00
2019-04-11T02:34:31.508Z,2.00
2019-04-11T02:37:02.252Z,2.00
2019-04-11T02:39:31.679Z,1.90
2019-04-11T02:42:03.630Z,2.00
2019-04-11T02:44:45.438Z,1.90
2019-04-11T02:47:09.805Z,1.90
2019-04-11T02:49:33.150Z,1.80
2019-04-11T02:52:02.738Z,1.80
2019-04-11T02:54:33.456Z,1.80
2019-04-11T02:57:02.792Z,1.80
2019-04-11T02:59:32.314Z,1.80
2019-04-11T03:02:01.404Z,1.70
2019-04-11T03:04:31.046Z,1.70
2019-04-11T03:07:00.676Z,1.70
2019-04-11T03:09:31.046Z,1.70
2019-04-11T03:12:00.427Z,1.60
2019-04-11T03:14:44.698Z,1.60
2019-04-11T03:17:12.000Z,1.50
2019-04-11T03:19:44.046Z,1.50
2019-04-11T03:22:02.864Z,1.40
2019-04-11T03:24:33.403Z,1.40
2019-04-11T03:27:04.759Z,1.30
2019-04-11T03:29:35.414Z,1.30
2019-04-11T03:32:49.055Z,1.20
2019-04-11T03:35:20.750Z,1.20
2019-04-11T03:37:27.263Z,1.20
2019-04-11T03:39:56.877Z,1.10
2019-04-11T03:42:20.606Z,1.10
2019-04-11T03:44:42.340Z,1.10
2019-04-11T03:47:20.316Z,1.00
2019-04-11T03:49:46.791Z,1.00
2019-04-11T03:52:12.109Z,1.00
2019-04-11T03:54:42.599Z,1.00
2019-04-11T03:57:13.407Z,0.90
2019-04-11T03:59:43.770Z,0.90
2019-04-11T04:02:14.630Z,0.90
2019-04-11T04:04:43.812Z,0.80
2019-04-11T04:07:16.473Z,0.80
2019-04-11T04:09:46.168Z,0.80
2019-04-11T04:12:15.769Z,0.80
2019-04-11T04:15:04.586Z,0.70
2019-04-11T04:17:35.402Z,0.70
2019-04-11T04:20:17.250Z,0.70
2019-04-11T04:22:49.731Z,0.70
2019-04-11T04:25:19.530Z,0.60
2019-04-11T04:27:51.292Z,0.70
2019-04-11T04:30:22.041Z,0.60
2019-04-11T04:32:52.181Z,0.60
2019-04-11T04:35:23.129Z,0.60
2019-04-11T04:37:51.872Z,0.50
2019-04-11T04:40:36.134Z,0.50
2019-04-11T04:42:55.385Z,0.50
2019-04-11T04:45:23.693Z,0.50
2019-04-11T04:48:00.465Z,0.50
2019-04-11T04:50:24.395Z,0.50
2019-04-11T04:52:53.732Z,0.50
2019-04-11T04:55:23.672Z,0.50
2019-04-11T04:57:55.225Z,0.50
2019-04-11T05:00:25.361Z,0.50
2019-04-11T05:02:54.946Z,0.50
2019-04-11T05:05:26.625Z,0.50
2019-04-11T05:07:56.300Z,0.50
2019-04-11T05:10:26.354Z,0.50
2019-04-11T05:12:56.885Z,0.60
2019-04-11T05:15:26.140Z,0.60
2019-04-11T05:17:55.267Z,0.60
2019-04-11T05:20:24.244Z,0.70
2019-04-11T05:22:53.112Z,0.70
2019-04-11T05:25:22.272Z,0.80
2019-04-11T05:27:51.838Z,0.80
2019-04-11T05:30:20.664Z,0.80
2019-04-11T05:32:49.527Z,0.90
2019-04-11T05:35:18.551Z,1.00
2019-04-11T05:37:47.527Z,1.00
2019-04-11T05:40:16.853Z,1.10
2019-04-11T05:42:51.260Z,1.20
2019-04-11T05:45:20.865Z,1.20
2019-04-11T05:47:50.923Z,1.30
2019-04-11T05:50:24.770Z,1.40
2019-04-11T05:52:54.606Z,1.50
2019-04-11T05:55:23.879Z,1.60
2019-04-11T05:57:54.400Z,1.70
2019-04-11T06:00:24.943Z,1.70
2019-04-11T06:02:59.590Z,1.80
2019-04-11T06:05:37.438Z,1.90
2019-04-11T06:08:08.096Z,2.00
2019-04-11T06:10:54.604Z,2.20
2019-04-11T06:13:25.139Z,2.30
2019-04-11T06:15:58.370Z,2.40
2019-04-11T06:18:35.333Z,2.50
2019-04-11T06:21:17.944Z,2.60
2019-04-11T06:23:49.741Z,2.70
2019-04-11T06:26:38.683Z,2.80
2019-04-11T06:29:17.401Z,2.90
2019-04-11T06:31:57.624Z,3.00
2019-04-11T06:34:28.180Z,3.10
2019-04-11T06:37:15.036Z,3.30
2019-04-11T06:39:45.463Z,3.40
2019-04-11T06:42:27.057Z,3.50
2019-04-11T06:44:58.496Z,3.60
2019-04-11T06:47:43.024Z,3.80
2019-04-11T06:50:23.003Z,3.90
2019-04-11T06:52:52.938Z,4.00
2019-04-11T06:55:23.501Z,4.10
2019-04-11T06:57:58.473Z,4.20
2019-04-11T07:00:27.392Z,4.30
2019-04-11T07:03:01.298Z,4.40
2019-04-11T07:05:33.052Z,4.50
2019-04-11T07:08:03.717Z,4.60
2019-04-11T07:10:34.268Z,4.80
2019-04-11T07:13:07.897Z,4.90
2019-04-11T07:15:38.303Z,4.90
2019-04-11T07:18:18.340Z,5.00
2019-04-11T07:20:54.912Z,5.10
2019-04-11T07:23:43.957Z,5.20
2019-04-11T07:26:19.163Z,5.40
2019-04-11T07:28:56.446Z,5.50
2019-04-11T07:31:39.775Z,5.50
2019-04-11T07:34:28.181Z,5.60
2019-04-11T07:37:15.587Z,5.70
2019-04-11T07:40:03.085Z,5.80
2019-04-11T07:42:37.355Z,5.90
2019-04-11T07:45:11.596Z,6.10
2019-04-11T07:47:41.599Z,6.20
2019-04-11T07:50:11.153Z,6.20
2019-04-11T07:52:51.619Z,6.20
2019-04-11T07:55:23.499Z,6.30
2019-04-11T07:57:57.156Z,6.40
2019-04-11T08:00:47.449Z,6.60
2019-04-11T08:03:35.575Z,6.80
2019-04-11T08:06:07.368Z,7.10
2019-04-11T08:08:49.943Z,7.20
2019-04-11T08:11:29.573Z,7.30
2019-04-11T08:14:18.386Z,7.30
2019-04-11T08:17:04.255Z,7.30
2019-04-11T08:19:51.263Z,7.40
2019-04-11T08:22:30.821Z,7.50
2019-04-11T08:25:13.278Z,7.60
2019-04-11T08:27:56.078Z,7.80
2019-04-11T08:30:16.964Z,7.90
2019-04-11T08:32:51.863Z,8.00
2019-04-11T08:35:33.144Z,8.20
2019-04-11T08:38:04.544Z,8.30
2019-04-11T08:40:53.382Z,8.50
2019-04-11T08:43:23.808Z,8.60
2019-04-11T08:45:54.720Z,8.70
2019-04-11T08:48:24.678Z,8.90
2019-04-11T08:50:55.183Z,9.10
2019-04-11T08:53:44.720Z,9.20
2019-04-11T08:56:16.180Z,9.40
2019-04-11T08:59:15.327Z,9.50
2019-04-11T09:01:44.492Z,9.60
2019-04-11T09:04:25.961Z,9.80
2019-04-11T09:06:56.802Z,9.80
2019-04-11T09:09:27.376Z,9.80
2019-04-11T09:11:58.333Z,9.90
2019-04-11T09:14:47.033Z,9.90
2019-04-11T09:17:23.471Z,9.90
2019-04-11T09:20:00.046Z,9.70
2019-04-11T09:22:31.178Z,9.70
2019-04-11T09:25:11.014Z,9.60
2019-04-11T09:27:45.296Z,9.90
2019-04-11T09:30:32.703Z,10.00
2019-04-11T09:33:15.301Z,10.30
2019-04-11T09:36:02.223Z,10.40
2019-04-11T09:38:32.832Z,10.50
2019-04-11T09:41:20.561Z,10.60
2019-04-11T09:43:50.531Z,10.40
2019-04-11T09:46:27.226Z,10.40
2019-04-11T09:48:58.029Z,10.40
2019-04-11T09:51:31.714Z,10.30
2019-04-11T09:54:17.645Z,10.30
2019-04-11T09:56:51.754Z,10.30
2019-04-11T09:59:22.995Z,10.30
2019-04-11T10:02:00.292Z,10.40
2019-04-11T10:04:31.973Z,10.60
2019-04-11T10:07:17.928Z,10.70
2019-04-11T10:09:57.504Z,10.70
2019-04-11T10:12:40.536Z,10.80
2019-04-11T10:15:11.294Z,10.90
2019-04-11T10:17:42.545Z,10.90
2019-04-11T10:20:13.215Z,11.10
2019-04-11T10:22:56.375Z,11.30
2019-04-11T10:25:28.292Z,11.50
2019-04-11T10:28:11.251Z,11.70
2019-04-11T10:30:57.966Z,11.80
2019-04-11T10:33:35.176Z,11.50
2019-04-11T10:36:12.557Z,11.50
2019-04-11T10:38:41.587Z,11.50
2019-04-11T10:41:18.728Z,11.60
2019-04-11T10:43:47.776Z,11.60
2019-04-11T10:46:18.182Z,11.70
2019-04-11T10:48:49.144Z,11.80
2019-04-11T10:51:35.898Z,12.00
2019-04-11T10:54:08.158Z,12.20
2019-04-11T10:56:39.190Z,12.40
2019-04-11T10:59:09.133Z,12.40
2019-04-11T11:01:42.383Z,12.50
2019-04-11T11:04:13.775Z,12.60
2019-04-11T11:06:45.000Z,12.60
2019-04-11T11:09:18.344Z,12.60
2019-04-11T11:11:54.842Z,12.60
2019-04-11T11:14:29.014Z,12.50
2019-04-11T11:17:06.560Z,12.50
2019-04-11T11:20:07.787Z,12.50
2019-04-11T11:22:34.248Z,12.60
2019-04-11T11:25:20.581Z,12.70
2019-04-11T11:27:50.284Z,12.90
2019-04-11T11:30:27.392Z,13.10
2019-04-11T11:32:56.365Z,13.20
2019-04-11T11:35:35.950Z,13.20
2019-04-11T11:38:06.013Z,13.10
2019-04-11T11:40:54.144Z,13.00
2019-04-11T11:43:25.272Z,13.00
2019-04-11T11:45:59.004Z,12.80
2019-04-11T11:48:44.052Z,12.70
2019-04-11T11:51:13.999Z,12.60
2019-04-11T11:53:44.368Z,12.50
2019-04-11T11:56:13.756Z,12.60
2019-04-11T11:58:51.858Z,12.70
2019-04-11T12:01:21.917Z,12.70
2019-04-11T12:03:55.396Z,12.70
2019-04-11T12:06:27.058Z,12.80
2019-04-11T12:09:04.366Z,13.00
2019-04-11T12:11:34.771Z,12.90
2019-04-11T12:14:18.074Z,13.20
2019-04-11T12:16:51.914Z,13.40
2019-04-11T12:19:24.749Z,13.50
2019-04-11T12:21:55.908Z,13.50
2019-04-11T12:24:42.972Z,13.70
2019-04-11T12:27:16.493Z,13.90
2019-04-11T12:29:53.479Z,14.00
2019-04-11T12:32:26.590Z,14.00
2019-04-11T12:35:04.085Z,14.00
2019-04-11T12:37:35.799Z,13.70
2019-04-11T12:40:09.648Z,13.50
2019-04-11T12:42:40.257Z,13.50
2019-04-11T12:45:27.332Z,13.60
2019-04-11T12:47:56.204Z,13.80
2019-04-11T12:50:35.659Z,13.90
2019-04-11T12:53:07.227Z,13.90
2019-04-11T12:55:40.743Z,14.00
2019-04-11T12:58:11.195Z,13.90
2019-04-11T13:00:50.654Z,14.00
2019-04-11T13:03:37.803Z,14.20
2019-04-11T13:06:35.251Z,14.40
2019-04-11T13:09:10.711Z,14.40
2019-04-11T13:11:47.167Z,14.50
2019-04-11T13:14:23.354Z,14.20
2019-04-11T13:17:08.932Z,14.00
2019-04-11T13:20:04.276Z,13.90
2019-04-11T13:22:27.695Z,13.80
2019-04-11T13:24:58.148Z,13.70
2019-04-11T13:27:28.024Z,13.80
2019-04-11T13:30:07.323Z,13.70
2019-04-11T13:32:38.132Z,13.60
2019-04-11T13:35:26.059Z,13.70
2019-04-11T13:38:05.471Z,13.90
2019-04-11T13:40:45.287Z,13.90
2019-04-11T13:43:25.223Z,14.00
2019-04-11T13:46:11.051Z,14.10
2019-04-11T13:48:53.423Z,14.10
2019-04-11T13:51:29.346Z,14.10
2019-04-11T13:54:16.022Z,14.00
2019-04-11T13:56:55.332Z,14.00
2019-04-11T13:59:34.601Z,14.10
2019-04-11T14:02:12.319Z,14.10
2019-04-11T14:04:42.767Z,14.10
2019-04-11T14:07:13.175Z,14.10
2019-04-11T14:09:49.536Z,14.00
2019-04-11T14:12:18.368Z,14.10
2019-04-11T14:14:48.040Z,14.00
2019-04-11T14:17:21.897Z,14.10
2019-04-11T14:19:52.584Z,14.20
2019-04-11T14:22:27.761Z,14.30
2019-04-11T14:25:15.032Z,14.30
2019-04-11T14:27:45.376Z,14.20
2019-04-11T14:30:16.320Z,14.30
2019-04-11T14:32:48.019Z,14.00
2019-04-11T14:35:27.068Z,13.90
2019-04-11T14:38:15.531Z,13.90
2019-04-11T14:41:01.626Z,13.90
2019-04-11T14:43:32.723Z,14.00
2019-04-11T14:46:09.199Z,14.10
2019-04-11T14:48:51.983Z,14.10
2019-04-11T14:51:23.786Z,14.10
2019-04-11T14:53:54.275Z,14.10
2019-04-11T14:56:27.042Z,14.10
2019-04-11T14:59:13.055Z,14.00
2019-04-11T15:01:44.098Z,14.00
2019-04-11T15:04:32.683Z,14.10
2019-04-11T15:07:03.125Z,14.20
2019-04-11T15:09:50.091Z,14.20
2019-04-11T15:12:32.460Z,14.10
2019-04-11T15:15:19.948Z,13.90
2019-04-11T15:17:49.634Z,13.70
2019-04-11T15:20:26.132Z,13.50
2019-04-11T15:23:06.711Z,13.30
2019-04-11T15:25:46.495Z,13.30
2019-04-11T15:28:19.391Z,13.40
2019-04-11T15:30:49.856Z,13.40
2019-04-11T15:33:32.552Z,13.30
2019-04-11T15:36:03.012Z,13.20
2019-04-11T15:38:49.631Z,13.20
2019-04-11T15:41:18.500Z,13.20
2019-04-11T15:44:00.463Z,13.10
2019-04-11T15:46:30.912Z,13.00
2019-04-11T15:49:21.290Z,12.90
2019-04-11T15:51:49.651Z,12.90
2019-04-11T15:54:20.051Z,12.80
2019-04-11T15:56:50.514Z,12.70
2019-04-11T15:59:32.959Z,12.60
2019-04-11T16:02:05.935Z,12.60
2019-04-11T16:04:36.376Z,12.50
2019-04-11T16:07:12.590Z,12.40
2019-04-11T16:09:43.636Z,12.30
2019-04-11T16:12:19.531Z,12.20
2019-04-11T16:14:50.115Z,12.10
2019-04-11T16:17:35.607Z,12.00
2019-04-11T16:20:05.884Z,11.90
2019-04-11T16:22:36.342Z,11.80
2019-04-11T16:25:11.032Z,11.80
2019-04-11T16:27:59.802Z,11.70
2019-04-11T16:30:30.299Z,11.60
2019-04-11T16:33:03.396Z,11.50
2019-04-11T16:35:35.547Z,11.40
2019-04-11T16:38:11.964Z,11.30
2019-04-11T16:40:48.364Z,11.10
2019-04-11T16:43:17.236Z,11.10
2019-04-11T16:46:04.199Z,11.10
2019-04-11T16:48:33.276Z,11.00
2019-04-11T16:51:02.104Z,10.80
2019-04-11T16:53:30.980Z,10.70
2019-04-11T16:55:59.811Z,10.50
2019-04-11T16:58:29.918Z,10.40
2019-04-11T17:00:58.748Z,10.30
2019-04-11T17:03:27.579Z,10.30
2019-04-11T17:06:00.471Z,10.10
2019-04-11T17:08:30.909Z,10.10
2019-04-11T17:11:01.392Z,10.00
2019-04-11T17:13:32.352Z,9.90
2019-04-11T17:16:02.631Z,9.90
2019-04-11T17:18:34.038Z,9.80
2019-04-11T17:21:01.976Z,9.70
2019-04-11T17:23:30.808Z,9.70
2019-04-11T17:25:59.671Z,9.60
2019-04-11T17:28:28.504Z,9.50
2019-04-11T17:30:57.380Z,9.40
2019-04-11T17:33:28.615Z,9.30
2019-04-11T17:35:56.708Z,9.30
2019-04-11T17:38:25.547Z,9.20
2019-04-11T17:40:54.403Z,9.10
2019-04-11T17:43:23.238Z,9.10
2019-04-11T17:45:52.107Z,9.00
2019-04-11T17:48:20.943Z,8.90
2019-04-11T17:50:49.810Z,8.80
2019-04-11T17:53:22.622Z,8.70
2019-04-11T17:55:54.278Z,8.60
2019-04-11T17:58:27.058Z,8.50
2019-04-11T18:00:55.089Z,8.40
2019-04-11T18:03:23.918Z,8.40
2019-04-11T18:05:52.785Z,8.20
2019-04-11T18:08:21.611Z,8.20
2019-04-11T18:10:50.788Z,8.10
2019-04-11T18:13:30.585Z,8.00
2019-04-11T18:16:00.941Z,7.90
2019-04-11T18:18:27.295Z,7.80
2019-04-11T18:20:56.466Z,7.70
2019-04-11T18:23:26.476Z,7.70
2019-04-11T18:25:55.792Z,7.60
2019-04-11T18:28:24.995Z,7.50
2019-04-11T18:30:55.400Z,7.40
2019-04-11T18:33:26.973Z,7.40
2019-04-11T18:36:02.319Z,7.30
2019-04-11T18:38:32.051Z,7.20
2019-04-11T18:41:01.729Z,7.10
2019-04-11T18:43:30.969Z,7.00
2019-04-11T18:46:00.347Z,7.00
2019-04-11T18:48:29.492Z,6.90
2019-04-11T18:50:58.688Z,6.80
2019-04-11T18:53:27.951Z,6.70
2019-04-11T18:55:57.108Z,6.70
2019-04-11T18:58:26.128Z,6.60
2019-04-11T19:00:56.943Z,6.60
2019-04-11T19:03:35.688Z,6.60
2019-04-11T19:05:56.792Z,6.50
2019-04-11T19:08:25.700Z,6.50
2019-04-11T19:10:54.503Z,6.40
2019-04-11T19:13:23.393Z,6.30
2019-04-11T19:15:52.257Z,6.20
2019-04-11T19:18:21.080Z,6.20
2019-04-11T19:20:50.826Z,6.10
2019-04-11T19:23:19.785Z,6.10
2019-04-11T19:25:48.619Z,6.00
2019-04-11T19:28:17.530Z,6.00
2019-04-11T19:30:46.340Z,5.90
2019-04-11T19:33:15.212Z,5.80
2019-04-11T19:35:44.079Z,5.80
2019-04-11T19:38:23.362Z,5.70
2019-04-11T19:40:52.191Z,5.70
2019-04-11T19:43:21.057Z,5.60
2019-04-11T19:45:50.548Z,5.60
2019-04-11T19:48:19.624Z,5.50
2019-04-11T19:50:48.608Z,5.40
2019-04-11T19:53:17.659Z,5.30
2019-04-11T19:55:48.280Z,5.20
2019-04-11T19:58:19.110Z,5.10
2019-04-11T20:00:52.901Z,5.10
2019-04-11T20:03:18.459Z,5.00
2019-04-11T20:05:47.292Z,4.90
2019-04-11T20:08:16.160Z,4.90
2019-04-11T20:10:44.992Z,4.80
2019-04-11T20:13:13.857Z,4.80
2019-04-11T20:15:43.112Z,4.70
2019-04-11T20:18:12.106Z,4.60
2019-04-11T20:20:40.919Z,4.60
2019-04-11T20:23:10.901Z,4.60
2019-04-11T20:25:40.535Z,4.50
2019-04-11T20:28:09.475Z,4.40
2019-04-11T20:30:38.345Z,4.40
2019-04-11T20:33:07.186Z,4.30
2019-04-11T20:35:39.777Z,4.30
2019-04-11T20:38:06.524Z,4.20
2019-04-11T20:40:35.393Z,4.20
2019-04-11T20:43:04.217Z,4.10
2019-04-11T20:45:34.667Z,4.10
2019-04-11T20:48:03.619Z,4.00
2019-04-11T20:50:32.500Z,4.00
2019-04-11T20:53:11.965Z,3.90
2019-04-11T20:55:31.922Z,3.80
2019-04-11T20:58:01.808Z,3.80
2019-04-11T21:00:30.731Z,3.70
2019-04-11T21:02:59.619Z,3.60
2019-04-11T21:05:30.991Z,3.60
2019-04-11T21:08:36.928Z,3.50
2019-04-11T21:11:05.822Z,3.50
2019-04-11T21:13:38.139Z,3.40
2019-04-11T21:16:05.445Z,3.30
2019-04-11T21:18:34.312Z,3.30
2019-04-11T21:21:03.228Z,3.30
2019-04-11T21:23:32.119Z,3.20
2019-04-11T21:26:01.012Z,3.10
2019-04-11T21:28:30.314Z,3.10
2019-04-11T21:31:00.708Z,3.00
2019-04-11T21:33:34.015Z,3.00
2019-04-11T21:36:01.418Z,2.90
2019-04-11T21:38:31.496Z,2.90
2019-04-11T21:41:01.046Z,2.90
2019-04-11T21:43:29.976Z,2.90
2019-04-11T21:45:58.791Z,2.80
2019-04-11T21:48:27.663Z,2.80
2019-04-11T21:50:56.536Z,2.70
2019-04-11T21:53:35.965Z,2.70
2019-04-11T21:55:56.914Z,2.60
2019-04-11T21:58:25.743Z,2.60
2019-04-11T22:01:00.151Z,2.50
2019-04-11T22:03:29.271Z,2.50
2019-04-11T22:06:00.013Z,2.50
2019-04-11T22:08:28.752Z,2.40
2019-04-11T22:10:57.578Z,2.40
2019-04-11T22:13:26.443Z,2.40
2019-04-11T22:15:55.271Z,2.30
2019-04-11T22:18:24.150Z,2.30
2019-04-11T22:20:53.000Z,2.30
2019-04-11T22:23:21.823Z,2.20
2019-04-11T22:25:50.692Z,2.20
2019-04-11T22:28:19.583Z,2.20
2019-04-11T22:30:50.123Z,2.10
2019-04-11T22:33:20.565Z,2.10
2019-04-11T22:35:49.387Z,2.00
2019-04-11T22:38:18.281Z,2.00
2019-04-11T22:40:47.090Z,2.00
2019-04-11T22:43:24.095Z,1.90
2019-04-11T22:45:46.440Z,1.90
2019-04-11T22:48:15.300Z,1.80
2019-04-11T22:50:44.164Z,1.80
2019-04-11T22:53:13.575Z,1.80
2019-04-11T22:55:42.454Z,1.70
2019-04-11T22:58:13.972Z,1.70
2019-04-11T23:00:45.155Z,1.60
2019-04-11T23:03:19.907Z,1.60
2019-04-11T23:05:48.779Z,1.50
2019-04-11T23:08:19.382Z,1.50
2019-04-11T23:10:48.107Z,1.40
2019-04-11T23:13:16.971Z,1.40
2019-04-11T23:15:45.797Z,1.40
2019-04-11T23:18:14.707Z,1.40
2019-04-11T23:20:44.072Z,1.30
2019-04-11T23:23:14.098Z,1.30
2019-04-11T23:25:43.121Z,1.30
2019-04-11T23:28:15.654Z,1.20
2019-04-11T23:30:42.760Z,1.20
2019-04-11T23:33:11.620Z,1.20
2019-04-11T23:35:40.448Z,1.20
2019-04-11T23:38:09.308Z,1.10
2019-04-11T23:40:38.137Z,1.10
2019-04-11T23:43:07.003Z,1.00
2019-04-11T23:45:35.830Z,1.00
2019-04-11T23:48:04.702Z,1.00
2019-04-11T23:50:33.528Z,1.00
2019-04-11T23:53:02.394Z,1.00
2019-04-11T23:55:31.220Z,0.90
2019-04-11T23:58:01.603Z,0.90
